sensor_id;sensor_type;location;lat;lon;timestamp;P1;durP1;ratioP1;P2;durP2;ratioP2
21591;SDS011;10958;50.892;3.992;2023-06-19T00:00:11;4.85;;;2.97;;
21591;SDS011;10958;50.892;3.992;2023-06-19T00:02:39;8.05;;;3.03;;
21591;SDS011;10958;50.892;3.992;2023-06-19T00:05:06;7.05;;;3.13;;
21591;SDS011;10958;50.892;3.992;2023-06-19T00:07:32;4.65;;;3.30;;
21591;SDS011;10958;50.892;3.992;2023-06-19T00:10:02;4.93;;;3.40;;
21591;SDS011;10958;50.892;3.992;2023-06-19T00:12:28;5.10;;;3.40;;
21591;SDS011;10958;50.892;3.992;2023-06-19T00:14:54;5.85;;;3.40;;
21591;SDS011;10958;50.892;3.992;2023-06-19T00:17:20;4.90;;;3.30;;
21591;SDS011;10958;50.892;3.992;2023-06-19T00:19:46;6.38;;;3.45;;
21591;SDS011;10958;50.892;3.992;2023-06-19T00:22:14;6.32;;;3.40;;
21591;SDS011;10958;50.892;3.992;2023-06-19T00:24:40;5.28;;;3.65;;
21591;SDS011;10958;50.892;3.992;2023-06-19T00:27:05;7.47;;;3.67;;
21591;SDS011;10958;50.892;3.992;2023-06-19T00:29:32;9.02;;;3.78;;
21591;SDS011;10958;50.892;3.992;2023-06-19T00:31:58;5.35;;;3.58;;
21591;SDS011;10958;50.892;3.992;2023-06-19T00:34:25;7.80;;;3.90;;
21591;SDS011;10958;50.892;3.992;2023-06-19T00:39:23;5.53;;;4.00;;
21591;SDS011;10958;50.892;3.992;2023-06-19T00:41:53;6.47;;;3.67;;
21591;SDS011;10958;50.892;3.992;2023-06-19T00:44:20;6.60;;;3.47;;
21591;SDS011;10958;50.892;3.992;2023-06-19T00:46:55;6.10;;;4.05;;
21591;SDS011;10958;50.892;3.992;2023-06-19T00:49:23;11.38;;;4.38;;
21591;SDS011;10958;50.892;3.992;2023-06-19T00:51:51;7.53;;;4.20;;
21591;SDS011;10958;50.892;3.992;2023-06-19T00:54:17;9.15;;;4.30;;
21591;SDS011;10958;50.892;3.992;2023-06-19T00:56:46;7.75;;;4.20;;
21591;SDS011;10958;50.892;3.992;2023-06-19T00:59:15;6.22;;;4.40;;
21591;SDS011;10958;50.892;3.992;2023-06-19T01:01:42;9.98;;;4.35;;
21591;SDS011;10958;50.892;3.992;2023-06-19T01:04:08;8.57;;;4.57;;
21591;SDS011;10958;50.892;3.992;2023-06-19T01:06:39;6.80;;;4.05;;
21591;SDS011;10958;50.892;3.992;2023-06-19T01:09:08;7.40;;;4.65;;
21591;SDS011;10958;50.892;3.992;2023-06-19T01:14:06;7.88;;;4.82;;
21591;SDS011;10958;50.892;3.992;2023-06-19T01:16:36;9.68;;;5.10;;
21591;SDS011;10958;50.892;3.992;2023-06-19T01:19:03;9.82;;;4.97;;
21591;SDS011;10958;50.892;3.992;2023-06-19T01:21:30;7.07;;;5.03;;
21591;SDS011;10958;50.892;3.992;2023-06-19T01:23:57;8.60;;;4.93;;
21591;SDS011;10958;50.892;3.992;2023-06-19T01:26:23;10.35;;;5.50;;
21591;SDS011;10958;50.892;3.992;2023-06-19T01:28:51;10.57;;;5.03;;
21591;SDS011;10958;50.892;3.992;2023-06-19T01:31:20;9.98;;;5.50;;
21591;SDS011;10958;50.892;3.992;2023-06-19T01:34:01;6.68;;;5.50;;
21591;SDS011;10958;50.892;3.992;2023-06-19T01:36:27;8.70;;;5.55;;
21591;SDS011;10958;50.892;3.992;2023-06-19T01:38:55;12.10;;;6.35;;
21591;SDS011;10958;50.892;3.992;2023-06-19T01:41:28;8.77;;;5.45;;
21591;SDS011;10958;50.892;3.992;2023-06-19T01:43:57;10.38;;;6.43;;
21591;SDS011;10958;50.892;3.992;2023-06-19T01:46:24;10.13;;;6.35;;
21591;SDS011;10958;50.892;3.992;2023-06-19T01:48:50;8.73;;;6.80;;
21591;SDS011;10958;50.892;3.992;2023-06-19T01:51:19;11.38;;;6.43;;
21591;SDS011;10958;50.892;3.992;2023-06-19T01:53:45;9.43;;;7.07;;
21591;SDS011;10958;50.892;3.992;2023-06-19T01:56:10;8.38;;;7.20;;
21591;SDS011;10958;50.892;3.992;2023-06-19T01:58:36;7.32;;;6.60;;
21591;SDS011;10958;50.892;3.992;2023-06-19T02:01:04;8.88;;;6.85;;
21591;SDS011;10958;50.892;3.992;2023-06-19T02:03:29;10.77;;;6.57;;
21591;SDS011;10958;50.892;3.992;2023-06-19T02:05:55;9.65;;;7.20;;
21591;SDS011;10958;50.892;3.992;2023-06-19T02:08:21;12.85;;;8.25;;
21591;SDS011;10958;50.892;3.992;2023-06-19T02:10:46;10.45;;;7.93;;
21591;SDS011;10958;50.892;3.992;2023-06-19T02:13:12;11.02;;;8.02;;
21591;SDS011;10958;50.892;3.992;2023-06-19T02:15:38;9.10;;;7.38;;
21591;SDS011;10958;50.892;3.992;2023-06-19T02:18:04;12.25;;;7.95;;
21591;SDS011;10958;50.892;3.992;2023-06-19T02:20:30;11.82;;;8.00;;
21591;SDS011;10958;50.892;3.992;2023-06-19T02:22:58;8.68;;;7.78;;
21591;SDS011;10958;50.892;3.992;2023-06-19T02:25:24;12.50;;;7.75;;
21591;SDS011;10958;50.892;3.992;2023-06-19T02:27:50;12.05;;;8.00;;
21591;SDS011;10958;50.892;3.992;2023-06-19T02:30:16;10.32;;;7.03;;
21591;SDS011;10958;50.892;3.992;2023-06-19T02:32:44;10.57;;;8.30;;
21591;SDS011;10958;50.892;3.992;2023-06-19T02:35:10;10.37;;;7.20;;
21591;SDS011;10958;50.892;3.992;2023-06-19T02:37:37;10.90;;;8.40;;
21591;SDS011;10958;50.892;3.992;2023-06-19T02:40:03;9.80;;;7.88;;
21591;SDS011;10958;50.892;3.992;2023-06-19T02:42:30;11.10;;;8.00;;
21591;SDS011;10958;50.892;3.992;2023-06-19T02:44:55;9.10;;;7.80;;
21591;SDS011;10958;50.892;3.992;2023-06-19T02:47:27;12.25;;;7.60;;
21591;SDS011;10958;50.892;3.992;2023-06-19T02:49:57;11.60;;;8.25;;
21591;SDS011;10958;50.892;3.992;2023-06-19T02:52:24;11.73;;;7.50;;
21591;SDS011;10958;50.892;3.992;2023-06-19T02:54:50;13.02;;;6.78;;
21591;SDS011;10958;50.892;3.992;2023-06-19T02:57:16;8.85;;;6.57;;
21591;SDS011;10958;50.892;3.992;2023-06-19T02:59:41;8.43;;;6.20;;
21591;SDS011;10958;50.892;3.992;2023-06-19T03:02:07;7.70;;;6.03;;
21591;SDS011;10958;50.892;3.992;2023-06-19T03:04:32;8.05;;;5.70;;
21591;SDS011;10958;50.892;3.992;2023-06-19T03:06:58;9.25;;;6.03;;
21591;SDS011;10958;50.892;3.992;2023-06-19T03:09:26;7.22;;;5.20;;
21591;SDS011;10958;50.892;3.992;2023-06-19T03:11:52;7.35;;;5.05;;
21591;SDS011;10958;50.892;3.992;2023-06-19T03:14:18;9.70;;;5.72;;
21591;SDS011;10958;50.892;3.992;2023-06-19T03:16:46;9.45;;;5.55;;
21591;SDS011;10958;50.892;3.992;2023-06-19T03:19:12;9.53;;;5.77;;
21591;SDS011;10958;50.892;3.992;2023-06-19T03:21:37;8.32;;;6.03;;
21591;SDS011;10958;50.892;3.992;2023-06-19T03:24:05;8.90;;;6.33;;
21591;SDS011;10958;50.892;3.992;2023-06-19T03:26:34;7.75;;;5.60;;
21591;SDS011;10958;50.892;3.992;2023-06-19T03:29:00;11.30;;;6.20;;
21591;SDS011;10958;50.892;3.992;2023-06-19T03:31:25;10.73;;;6.63;;
21591;SDS011;10958;50.892;3.992;2023-06-19T03:33:51;8.13;;;6.47;;
21591;SDS011;10958;50.892;3.992;2023-06-19T03:36:16;8.77;;;6.72;;
21591;SDS011;10958;50.892;3.992;2023-06-19T03:38:42;10.23;;;6.30;;
21591;SDS011;10958;50.892;3.992;2023-06-19T03:41:11;8.35;;;6.68;;
21591;SDS011;10958;50.892;3.992;2023-06-19T03:43:37;8.20;;;6.60;;
21591;SDS011;10958;50.892;3.992;2023-06-19T03:46:03;8.23;;;7.00;;
21591;SDS011;10958;50.892;3.992;2023-06-19T03:48:29;11.10;;;6.90;;
21591;SDS011;10958;50.892;3.992;2023-06-19T03:50:55;11.05;;;8.05;;
21591;SDS011;10958;50.892;3.992;2023-06-19T03:53:21;10.63;;;7.80;;
21591;SDS011;10958;50.892;3.992;2023-06-19T03:55:47;10.82;;;7.90;;
21591;SDS011;10958;50.892;3.992;2023-06-19T03:58:12;10.45;;;8.18;;
21591;SDS011;10958;50.892;3.992;2023-06-19T04:00:38;11.07;;;8.48;;
21591;SDS011;10958;50.892;3.992;2023-06-19T04:03:04;11.95;;;8.50;;
21591;SDS011;10958;50.892;3.992;2023-06-19T04:05:29;11.93;;;8.43;;
21591;SDS011;10958;50.892;3.992;2023-06-19T04:07:55;10.23;;;8.55;;
21591;SDS011;10958;50.892;3.992;2023-06-19T04:10:21;10.00;;;8.52;;
21591;SDS011;10958;50.892;3.992;2023-06-19T04:12:51;13.13;;;8.98;;
21591;SDS011;10958;50.892;3.992;2023-06-19T04:15:16;11.80;;;9.38;;
21591;SDS011;10958;50.892;3.992;2023-06-19T04:17:42;11.60;;;9.77;;
21591;SDS011;10958;50.892;3.992;2023-06-19T04:20:08;13.52;;;9.48;;
21591;SDS011;10958;50.892;3.992;2023-06-19T04:22:36;16.25;;;10.02;;
21591;SDS011;10958;50.892;3.992;2023-06-19T04:25:06;11.60;;;9.30;;
21591;SDS011;10958;50.892;3.992;2023-06-19T04:27:38;12.23;;;9.95;;
21591;SDS011;10958;50.892;3.992;2023-06-19T04:30:04;13.43;;;10.13;;
21591;SDS011;10958;50.892;3.992;2023-06-19T04:32:31;15.15;;;10.60;;
21591;SDS011;10958;50.892;3.992;2023-06-19T04:34:59;17.23;;;11.37;;
21591;SDS011;10958;50.892;3.992;2023-06-19T04:37:25;15.93;;;11.40;;
21591;SDS011;10958;50.892;3.992;2023-06-19T04:39:50;15.75;;;11.48;;
21591;SDS011;10958;50.892;3.992;2023-06-19T04:42:17;15.57;;;11.60;;
21591;SDS011;10958;50.892;3.992;2023-06-19T04:44:44;16.15;;;11.95;;
21591;SDS011;10958;50.892;3.992;2023-06-19T04:47:10;17.45;;;12.35;;
21591;SDS011;10958;50.892;3.992;2023-06-19T04:49:36;15.20;;;12.90;;
21591;SDS011;10958;50.892;3.992;2023-06-19T04:52:01;16.45;;;12.70;;
21591;SDS011;10958;50.892;3.992;2023-06-19T04:54:30;16.60;;;12.30;;
21591;SDS011;10958;50.892;3.992;2023-06-19T04:56:58;18.75;;;12.77;;
21591;SDS011;10958;50.892;3.992;2023-06-19T04:59:23;17.80;;;13.20;;
21591;SDS011;10958;50.892;3.992;2023-06-19T05:01:49;19.75;;;13.90;;
21591;SDS011;10958;50.892;3.992;2023-06-19T05:04:18;16.63;;;13.07;;
21591;SDS011;10958;50.892;3.992;2023-06-19T05:06:47;18.00;;;13.13;;
21591;SDS011;10958;50.892;3.992;2023-06-19T05:09:16;18.98;;;13.35;;
21591;SDS011;10958;50.892;3.992;2023-06-19T05:11:45;19.38;;;13.93;;
21591;SDS011;10958;50.892;3.992;2023-06-19T05:14:10;20.48;;;13.80;;
21591;SDS011;10958;50.892;3.992;2023-06-19T05:16:36;15.88;;;13.40;;
21591;SDS011;10958;50.892;3.992;2023-06-19T05:19:02;18.45;;;13.15;;
21591;SDS011;10958;50.892;3.992;2023-06-19T05:21:28;19.92;;;14.77;;
21591;SDS011;10958;50.892;3.992;2023-06-19T05:23:53;17.38;;;14.02;;
21591;SDS011;10958;50.892;3.992;2023-06-19T05:26:19;17.90;;;13.82;;
21591;SDS011;10958;50.892;3.992;2023-06-19T05:28:47;17.67;;;13.82;;
21591;SDS011;10958;50.892;3.992;2023-06-19T05:31:15;21.02;;;14.95;;
21591;SDS011;10958;50.892;3.992;2023-06-19T05:33:42;18.13;;;14.40;;
21591;SDS011;10958;50.892;3.992;2023-06-19T05:36:10;20.15;;;14.43;;
21591;SDS011;10958;50.892;3.992;2023-06-19T05:38:37;19.25;;;14.05;;
21591;SDS011;10958;50.892;3.992;2023-06-19T05:41:02;17.88;;;14.93;;
21591;SDS011;10958;50.892;3.992;2023-06-19T05:43:31;21.08;;;14.18;;
21591;SDS011;10958;50.892;3.992;2023-06-19T05:46:00;17.27;;;14.60;;
21591;SDS011;10958;50.892;3.992;2023-06-19T05:48:29;17.15;;;14.30;;
21591;SDS011;10958;50.892;3.992;2023-06-19T05:51:00;18.70;;;14.90;;
21591;SDS011;10958;50.892;3.992;2023-06-19T05:53:26;16.98;;;13.93;;
21591;SDS011;10958;50.892;3.992;2023-06-19T05:55:56;17.92;;;13.70;;
21591;SDS011;10958;50.892;3.992;2023-06-19T05:58:21;17.10;;;14.90;;
21591;SDS011;10958;50.892;3.992;2023-06-19T06:00:49;19.63;;;14.68;;
21591;SDS011;10958;50.892;3.992;2023-06-19T06:03:14;20.25;;;14.15;;
21591;SDS011;10958;50.892;3.992;2023-06-19T06:05:42;17.95;;;13.75;;
21591;SDS011;10958;50.892;3.992;2023-06-19T06:08:14;20.90;;;13.90;;
21591;SDS011;10958;50.892;3.992;2023-06-19T06:10:40;18.15;;;14.35;;
21591;SDS011;10958;50.892;3.992;2023-06-19T06:13:07;18.15;;;13.35;;
21591;SDS011;10958;50.892;3.992;2023-06-19T06:15:35;19.00;;;14.50;;
21591;SDS011;10958;50.892;3.992;2023-06-19T06:18:01;16.73;;;13.55;;
21591;SDS011;10958;50.892;3.992;2023-06-19T06:20:28;20.00;;;14.30;;
21591;SDS011;10958;50.892;3.992;2023-06-19T06:22:54;17.67;;;13.65;;
21591;SDS011;10958;50.892;3.992;2023-06-19T06:25:20;18.48;;;12.90;;
21591;SDS011;10958;50.892;3.992;2023-06-19T06:27:46;15.55;;;12.98;;
21591;SDS011;10958;50.892;3.992;2023-06-19T06:30:12;16.70;;;13.43;;
21591;SDS011;10958;50.892;3.992;2023-06-19T06:32:38;16.50;;;12.55;;
21591;SDS011;10958;50.892;3.992;2023-06-19T06:35:04;15.85;;;12.70;;
21591;SDS011;10958;50.892;3.992;2023-06-19T06:37:30;19.27;;;13.27;;
21591;SDS011;10958;50.892;3.992;2023-06-19T06:39:56;16.58;;;12.65;;
21591;SDS011;10958;50.892;3.992;2023-06-19T06:42:21;15.55;;;12.48;;
21591;SDS011;10958;50.892;3.992;2023-06-19T06:44:48;20.42;;;12.80;;
21591;SDS011;10958;50.892;3.992;2023-06-19T06:47:14;15.43;;;12.10;;
21591;SDS011;10958;50.892;3.992;2023-06-19T06:50:03;13.48;;;11.50;;
21591;SDS011;10958;50.892;3.992;2023-06-19T06:52:29;18.27;;;12.07;;
21591;SDS011;10958;50.892;3.992;2023-06-19T06:54:58;17.00;;;11.52;;
21591;SDS011;10958;50.892;3.992;2023-06-19T06:57:23;14.73;;;10.55;;
21591;SDS011;10958;50.892;3.992;2023-06-19T06:59:52;13.95;;;10.85;;
21591;SDS011;10958;50.892;3.992;2023-06-19T07:02:18;14.60;;;10.70;;
21591;SDS011;10958;50.892;3.992;2023-06-19T07:04:44;18.20;;;11.05;;
21591;SDS011;10958;50.892;3.992;2023-06-19T07:07:10;11.98;;;10.68;;
21591;SDS011;10958;50.892;3.992;2023-06-19T07:09:38;14.25;;;11.13;;
21591;SDS011;10958;50.892;3.992;2023-06-19T07:12:05;12.93;;;11.55;;
21591;SDS011;10958;50.892;3.992;2023-06-19T07:14:32;14.95;;;10.40;;
21591;SDS011;10958;50.892;3.992;2023-06-19T07:16:58;16.00;;;11.38;;
21591;SDS011;10958;50.892;3.992;2023-06-19T07:19:24;14.43;;;11.30;;
21591;SDS011;10958;50.892;3.992;2023-06-19T07:21:52;15.75;;;11.23;;
21591;SDS011;10958;50.892;3.992;2023-06-19T07:24:18;13.20;;;10.60;;
21591;SDS011;10958;50.892;3.992;2023-06-19T07:26:47;13.85;;;11.02;;
21591;SDS011;10958;50.892;3.992;2023-06-19T07:29:15;15.77;;;12.27;;
21591;SDS011;10958;50.892;3.992;2023-06-19T07:31:41;15.60;;;11.85;;
21591;SDS011;10958;50.892;3.992;2023-06-19T07:36:36;15.80;;;10.85;;
21591;SDS011;10958;50.892;3.992;2023-06-19T07:39:02;13.48;;;9.75;;
21591;SDS011;10958;50.892;3.992;2023-06-19T07:41:28;15.02;;;10.15;;
21591;SDS011;10958;50.892;3.992;2023-06-19T07:43:56;13.68;;;10.30;;
21591;SDS011;10958;50.892;3.992;2023-06-19T07:46:22;16.67;;;9.88;;
21591;SDS011;10958;50.892;3.992;2023-06-19T07:48:48;14.40;;;9.55;;
21591;SDS011;10958;50.892;3.992;2023-06-19T07:51:14;13.60;;;10.13;;
21591;SDS011;10958;50.892;3.992;2023-06-19T07:53:40;13.30;;;10.43;;
21591;SDS011;10958;50.892;3.992;2023-06-19T07:56:06;12.27;;;9.77;;
21591;SDS011;10958;50.892;3.992;2023-06-19T07:58:33;13.75;;;9.73;;
21591;SDS011;10958;50.892;3.992;2023-06-19T08:00:59;13.85;;;10.45;;
21591;SDS011;10958;50.892;3.992;2023-06-19T08:03:25;12.40;;;9.90;;
21591;SDS011;10958;50.892;3.992;2023-06-19T08:05:51;10.70;;;8.93;;
21591;SDS011;10958;50.892;3.992;2023-06-19T08:08:19;14.25;;;9.05;;
21591;SDS011;10958;50.892;3.992;2023-06-19T08:10:45;13.50;;;9.30;;
21591;SDS011;10958;50.892;3.992;2023-06-19T08:13:15;11.77;;;9.63;;
21591;SDS011;10958;50.892;3.992;2023-06-19T08:15:41;12.75;;;8.85;;
21591;SDS011;10958;50.892;3.992;2023-06-19T08:18:10;11.73;;;9.63;;
21591;SDS011;10958;50.892;3.992;2023-06-19T08:20:36;11.57;;;9.25;;
21591;SDS011;10958;50.892;3.992;2023-06-19T08:23:02;12.63;;;8.80;;
21591;SDS011;10958;50.892;3.992;2023-06-19T08:25:29;12.95;;;8.73;;
21591;SDS011;10958;50.892;3.992;2023-06-19T08:27:57;11.75;;;9.05;;
21591;SDS011;10958;50.892;3.992;2023-06-19T08:30:25;10.93;;;8.80;;
21591;SDS011;10958;50.892;3.992;2023-06-19T08:32:51;14.23;;;9.30;;
21591;SDS011;10958;50.892;3.992;2023-06-19T08:35:16;14.73;;;9.80;;
21591;SDS011;10958;50.892;3.992;2023-06-19T08:37:42;14.18;;;10.43;;
21591;SDS011;10958;50.892;3.992;2023-06-19T08:40:08;16.10;;;9.85;;
21591;SDS011;10958;50.892;3.992;2023-06-19T08:42:35;13.43;;;11.43;;
21591;SDS011;10958;50.892;3.992;2023-06-19T08:45:01;14.20;;;10.68;;
21591;SDS011;10958;50.892;3.992;2023-06-19T08:47:31;11.75;;;9.80;;
21591;SDS011;10958;50.892;3.992;2023-06-19T08:50:00;12.57;;;10.70;;
21591;SDS011;10958;50.892;3.992;2023-06-19T08:52:26;15.10;;;9.77;;
21591;SDS011;10958;50.892;3.992;2023-06-19T08:54:54;12.98;;;9.90;;
21591;SDS011;10958;50.892;3.992;2023-06-19T08:59:49;13.18;;;10.10;;
21591;SDS011;10958;50.892;3.992;2023-06-19T09:02:16;15.93;;;10.23;;
21591;SDS011;10958;50.892;3.992;2023-06-19T09:04:42;12.98;;;9.75;;
21591;SDS011;10958;50.892;3.992;2023-06-19T09:07:09;11.80;;;10.30;;
21591;SDS011;10958;50.892;3.992;2023-06-19T09:09:43;14.18;;;10.27;;
21591;SDS011;10958;50.892;3.992;2023-06-19T09:12:12;12.23;;;9.30;;
21591;SDS011;10958;50.892;3.992;2023-06-19T09:14:40;11.48;;;9.10;;
21591;SDS011;10958;50.892;3.992;2023-06-19T09:17:10;11.10;;;8.30;;
21591;SDS011;10958;50.892;3.992;2023-06-19T09:19:37;13.57;;;9.10;;
21591;SDS011;10958;50.892;3.992;2023-06-19T09:22:08;13.68;;;8.70;;
21591;SDS011;10958;50.892;3.992;2023-06-19T09:24:37;14.05;;;9.93;;
21591;SDS011;10958;50.892;3.992;2023-06-19T09:27:11;11.85;;;9.38;;
21591;SDS011;10958;50.892;3.992;2023-06-19T09:29:46;11.82;;;9.05;;
21591;SDS011;10958;50.892;3.992;2023-06-19T09:32:18;13.70;;;9.65;;
21591;SDS011;10958;50.892;3.992;2023-06-19T09:34:49;16.05;;;8.70;;
21591;SDS011;10958;50.892;3.992;2023-06-19T09:37:17;16.33;;;9.17;;
21591;SDS011;10958;50.892;3.992;2023-06-19T09:39:56;13.60;;;10.13;;
21591;SDS011;10958;50.892;3.992;2023-06-19T09:42:26;12.52;;;9.98;;
21591;SDS011;10958;50.892;3.992;2023-06-19T09:45:00;14.05;;;10.60;;
21591;SDS011;10958;50.892;3.992;2023-06-19T09:47:42;13.82;;;9.68;;
21591;SDS011;10958;50.892;3.992;2023-06-19T09:50:14;16.35;;;10.48;;
21591;SDS011;10958;50.892;3.992;2023-06-19T09:52:41;13.93;;;9.90;;
21591;SDS011;10958;50.892;3.992;2023-06-19T09:55:08;10.75;;;9.57;;
21591;SDS011;10958;50.892;3.992;2023-06-19T09:57:38;12.63;;;9.15;;
21591;SDS011;10958;50.892;3.992;2023-06-19T10:00:08;13.00;;;10.27;;
21591;SDS011;10958;50.892;3.992;2023-06-19T10:02:39;13.23;;;9.52;;
21591;SDS011;10958;50.892;3.992;2023-06-19T10:05:12;11.65;;;10.07;;
21591;SDS011;10958;50.892;3.992;2023-06-19T10:07:41;14.55;;;10.32;;
21591;SDS011;10958;50.892;3.992;2023-06-19T10:10:08;14.80;;;10.95;;
21591;SDS011;10958;50.892;3.992;2023-06-19T10:12:50;14.10;;;10.93;;
21591;SDS011;10958;50.892;3.992;2023-06-19T10:15:18;14.30;;;11.13;;
21591;SDS011;10958;50.892;3.992;2023-06-19T10:17:46;13.55;;;11.52;;
21591;SDS011;10958;50.892;3.992;2023-06-19T10:20:35;18.85;;;12.48;;
21591;SDS011;10958;50.892;3.992;2023-06-19T10:25:40;16.35;;;11.38;;
21591;SDS011;10958;50.892;3.992;2023-06-19T10:28:22;14.35;;;11.32;;
21591;SDS011;10958;50.892;3.992;2023-06-19T10:30:56;13.75;;;11.38;;
21591;SDS011;10958;50.892;3.992;2023-06-19T10:33:28;16.52;;;10.88;;
21591;SDS011;10958;50.892;3.992;2023-06-19T10:35:58;12.10;;;9.63;;
21591;SDS011;10958;50.892;3.992;2023-06-19T10:38:45;13.02;;;9.82;;
21591;SDS011;10958;50.892;3.992;2023-06-19T10:41:18;11.80;;;9.00;;
21591;SDS011;10958;50.892;3.992;2023-06-19T10:44:02;13.63;;;8.68;;
21591;SDS011;10958;50.892;3.992;2023-06-19T10:46:33;14.45;;;9.15;;
21591;SDS011;10958;50.892;3.992;2023-06-19T10:49:06;10.63;;;8.93;;
21591;SDS011;10958;50.892;3.992;2023-06-19T10:51:36;16.95;;;8.35;;
21591;SDS011;10958;50.892;3.992;2023-06-19T10:54:06;10.10;;;7.68;;
21591;SDS011;10958;50.892;3.992;2023-06-19T10:56:33;12.40;;;7.53;;
21591;SDS011;10958;50.892;3.992;2023-06-19T10:59:02;8.88;;;6.50;;
21591;SDS011;10958;50.892;3.992;2023-06-19T11:04:07;12.55;;;7.90;;
21591;SDS011;10958;50.892;3.992;2023-06-19T11:06:36;9.82;;;6.65;;
21591;SDS011;10958;50.892;3.992;2023-06-19T11:11:40;9.38;;;7.13;;
21591;SDS011;10958;50.892;3.992;2023-06-19T11:14:08;10.18;;;6.47;;
21591;SDS011;10958;50.892;3.992;2023-06-19T11:16:37;8.05;;;6.45;;
21591;SDS011;10958;50.892;3.992;2023-06-19T11:19:05;9.75;;;6.60;;
21591;SDS011;10958;50.892;3.992;2023-06-19T11:21:33;10.13;;;6.70;;
21591;SDS011;10958;50.892;3.992;2023-06-19T11:24:03;7.78;;;5.80;;
21591;SDS011;10958;50.892;3.992;2023-06-19T11:26:34;8.30;;;5.75;;
21591;SDS011;10958;50.892;3.992;2023-06-19T11:29:12;8.20;;;5.82;;
21591;SDS011;10958;50.892;3.992;2023-06-19T11:31:39;12.52;;;6.47;;
21591;SDS011;10958;50.892;3.992;2023-06-19T11:34:05;10.07;;;6.68;;
21591;SDS011;10958;50.892;3.992;2023-06-19T11:36:31;10.40;;;6.15;;
21591;SDS011;10958;50.892;3.992;2023-06-19T11:38:57;12.55;;;6.60;;
21591;SDS011;10958;50.892;3.992;2023-06-19T11:41:29;13.90;;;6.25;;
21591;SDS011;10958;50.892;3.992;2023-06-19T11:44:03;10.68;;;6.43;;
21591;SDS011;10958;50.892;3.992;2023-06-19T11:46:30;9.18;;;6.90;;
21591;SDS011;10958;50.892;3.992;2023-06-19T11:51:37;8.43;;;6.40;;
21591;SDS011;10958;50.892;3.992;2023-06-19T11:54:07;11.98;;;6.88;;
21591;SDS011;10958;50.892;3.992;2023-06-19T11:56:36;12.18;;;6.80;;
21591;SDS011;10958;50.892;3.992;2023-06-19T11:59:03;8.85;;;6.50;;
21591;SDS011;10958;50.892;3.992;2023-06-19T12:01:29;8.98;;;6.80;;
21591;SDS011;10958;50.892;3.992;2023-06-19T12:03:58;13.68;;;6.28;;
21591;SDS011;10958;50.892;3.992;2023-06-19T12:06:25;8.85;;;6.57;;
21591;SDS011;10958;50.892;3.992;2023-06-19T12:08:51;9.27;;;5.65;;
21591;SDS011;10958;50.892;3.992;2023-06-19T12:11:17;9.60;;;6.40;;
21591;SDS011;10958;50.892;3.992;2023-06-19T12:13:44;10.73;;;6.30;;
21591;SDS011;10958;50.892;3.992;2023-06-19T12:16:10;9.43;;;6.13;;
21591;SDS011;10958;50.892;3.992;2023-06-19T12:18:40;9.77;;;6.90;;
21591;SDS011;10958;50.892;3.992;2023-06-19T12:21:06;9.43;;;6.05;;
21591;SDS011;10958;50.892;3.992;2023-06-19T12:23:32;7.80;;;6.13;;
21591;SDS011;10958;50.892;3.992;2023-06-19T12:25:58;10.40;;;6.53;;
21591;SDS011;10958;50.892;3.992;2023-06-19T12:28:26;6.68;;;5.32;;
21591;SDS011;10958;50.892;3.992;2023-06-19T12:30:52;8.73;;;6.05;;
21591;SDS011;10958;50.892;3.992;2023-06-19T12:33:19;7.70;;;6.25;;
21591;SDS011;10958;50.892;3.992;2023-06-19T12:35:45;8.02;;;5.93;;
21591;SDS011;10958;50.892;3.992;2023-06-19T12:38:14;7.70;;;5.68;;
21591;SDS011;10958;50.892;3.992;2023-06-19T12:40:40;9.27;;;5.63;;
21591;SDS011;10958;50.892;3.992;2023-06-19T12:43:07;9.60;;;6.07;;
21591;SDS011;10958;50.892;3.992;2023-06-19T12:45:32;9.35;;;6.63;;
21591;SDS011;10958;50.892;3.992;2023-06-19T12:47:58;7.35;;;5.60;;
21591;SDS011;10958;50.892;3.992;2023-06-19T12:50:24;9.93;;;6.00;;
21591;SDS011;10958;50.892;3.992;2023-06-19T12:52:50;9.45;;;6.07;;
21591;SDS011;10958;50.892;3.992;2023-06-19T12:55:18;10.45;;;6.20;;
21591;SDS011;10958;50.892;3.992;2023-06-19T12:57:44;8.82;;;6.35;;
21591;SDS011;10958;50.892;3.992;2023-06-19T13:00:11;10.10;;;6.05;;
21591;SDS011;10958;50.892;3.992;2023-06-19T13:02:40;8.63;;;5.50;;
21591;SDS011;10958;50.892;3.992;2023-06-19T13:05:08;9.18;;;6.05;;
21591;SDS011;10958;50.892;3.992;2023-06-19T13:07:36;9.77;;;5.63;;
21591;SDS011;10958;50.892;3.992;2023-06-19T13:10:02;6.82;;;5.38;;
21591;SDS011;10958;50.892;3.992;2023-06-19T13:14:58;10.63;;;5.95;;
21591;SDS011;10958;50.892;3.992;2023-06-19T13:17:25;6.85;;;5.28;;
21591;SDS011;10958;50.892;3.992;2023-06-19T13:19:50;7.60;;;5.20;;
21591;SDS011;10958;50.892;3.992;2023-06-19T13:22:16;7.85;;;5.32;;
21591;SDS011;10958;50.892;3.992;2023-06-19T13:24:42;8.55;;;5.30;;
21591;SDS011;10958;50.892;3.992;2023-06-19T13:27:09;8.87;;;5.70;;
21591;SDS011;10958;50.892;3.992;2023-06-19T13:29:36;10.43;;;5.22;;
21591;SDS011;10958;50.892;3.992;2023-06-19T13:32:01;10.43;;;5.57;;
21591;SDS011;10958;50.892;3.992;2023-06-19T13:34:28;6.40;;;5.18;;
21591;SDS011;10958;50.892;3.992;2023-06-19T13:36:53;9.90;;;5.43;;
21591;SDS011;10958;50.892;3.992;2023-06-19T13:39:19;9.27;;;5.35;;
21591;SDS011;10958;50.892;3.992;2023-06-19T13:41:45;8.13;;;5.35;;
21591;SDS011;10958;50.892;3.992;2023-06-19T13:44:12;9.07;;;5.45;;
21591;SDS011;10958;50.892;3.992;2023-06-19T13:46:38;9.27;;;5.40;;
21591;SDS011;10958;50.892;3.992;2023-06-19T13:49:07;6.35;;;4.80;;
21591;SDS011;10958;50.892;3.992;2023-06-19T13:51:33;9.45;;;5.38;;
21591;SDS011;10958;50.892;3.992;2023-06-19T13:53:58;7.65;;;5.03;;
21591;SDS011;10958;50.892;3.992;2023-06-19T13:56:24;6.45;;;4.90;;
21591;SDS011;10958;50.892;3.992;2023-06-19T13:58:50;9.00;;;4.93;;
21591;SDS011;10958;50.892;3.992;2023-06-19T14:01:16;6.70;;;5.10;;
21591;SDS011;10958;50.892;3.992;2023-06-19T14:03:42;7.20;;;4.78;;
21591;SDS011;10958;50.892;3.992;2023-06-19T14:06:08;7.50;;;4.85;;
21591;SDS011;10958;50.892;3.992;2023-06-19T14:08:34;5.95;;;4.82;;
21591;SDS011;10958;50.892;3.992;2023-06-19T14:11:02;6.65;;;4.55;;
21591;SDS011;10958;50.892;3.992;2023-06-19T14:13:28;5.30;;;4.15;;
21591;SDS011;10958;50.892;3.992;2023-06-19T14:15:54;6.63;;;4.40;;
21591;SDS011;10958;50.892;3.992;2023-06-19T14:18:20;7.85;;;4.60;;
21591;SDS011;10958;50.892;3.992;2023-06-19T14:20:46;8.35;;;4.40;;
21591;SDS011;10958;50.892;3.992;2023-06-19T14:23:11;5.05;;;4.20;;
21591;SDS011;10958;50.892;3.992;2023-06-19T14:25:37;8.05;;;5.00;;
21591;SDS011;10958;50.892;3.992;2023-06-19T14:28:03;6.43;;;4.90;;
21591;SDS011;10958;50.892;3.992;2023-06-19T14:30:29;6.95;;;4.18;;
21591;SDS011;10958;50.892;3.992;2023-06-19T14:32:58;7.25;;;4.90;;
21591;SDS011;10958;50.892;3.992;2023-06-19T14:35:24;6.20;;;4.57;;
21591;SDS011;10958;50.892;3.992;2023-06-19T14:37:50;6.40;;;5.03;;
21591;SDS011;10958;50.892;3.992;2023-06-19T14:40:16;8.20;;;4.15;;
21591;SDS011;10958;50.892;3.992;2023-06-19T14:42:42;11.20;;;4.85;;
21591;SDS011;10958;50.892;3.992;2023-06-19T14:45:08;7.57;;;4.45;;
21591;SDS011;10958;50.892;3.992;2023-06-19T14:47:34;8.68;;;4.18;;
21591;SDS011;10958;50.892;3.992;2023-06-19T14:50:02;8.02;;;4.68;;
21591;SDS011;10958;50.892;3.992;2023-06-19T14:52:27;9.88;;;5.70;;
21591;SDS011;10958;50.892;3.992;2023-06-19T14:54:54;8.82;;;4.82;;
21591;SDS011;10958;50.892;3.992;2023-06-19T14:57:19;10.13;;;4.90;;
21591;SDS011;10958;50.892;3.992;2023-06-19T14:59:45;5.78;;;4.43;;